Time;durP1;ratioP1;P1;durP2;ratioP2;P2;SDS_P1;SDS_P2;PMS_P1;PMS_P2;Temp;Humidity;BMP_temperature;BMP_pressure;BME280_temperature;BME280_humidity;BME280_pressure;Samples;Min_cycle;Max_cycle;Signal;HPM_P1;HPM_P2
2022/08/30 00:01:48;;;;;;;;;;;22.30;51.60;;;;;;482353;247;1119;-74
2022/08/30 00:03:49;;;;;;;;;;;22.30;51.50;;;;;;482353;244;1202;-74
2022/08/30 00:05:50;;;;;;;;;;;22.30;51.60;;;;;;482347;247;1129;-74
2022/08/30 00:07:52;;;;;;;;;;;22.30;51.60;;;;;;482571;247;1053;-74
2022/08/30 00:09:53;;;;;;;;;;;22.30;51.50;;;;;;482455;247;1106;-74
2022/08/30 00:11:54;;;;;;;;;;;22.30;51.60;;;;;;482451;247;1366;-74
2022/08/30 00:13:56;;;;;;;;;;;22.20;51.60;;;;;;482339;247;1325;-74
2022/08/30 00:15:57;;;;;;;;;;;22.20;51.70;;;;;;482364;247;1352;-74
2022/08/30 00:17:58;;;;;;;;;;;22.30;51.70;;;;;;482262;247;2141;-74
2022/08/30 00:20:00;;;;;;;;;;;22.30;51.60;;;;;;482351;247;1228;-74
2022/08/30 00:22:01;;;;;;;;;;;22.30;51.40;;;;;;482379;247;1108;-74
2022/08/30 00:24:03;;;;;;;;;;;22.30;51.60;;;;;;482161;247;1086;-74
2022/08/30 00:26:04;;;;;;;;;;;22.30;51.50;;;;;;482311;247;1407;-75
2022/08/30 00:28:05;;;;;;;;;;;22.30;51.60;;;;;;482313;247;1303;-74
2022/08/30 00:30:06;;;;;;;;;;;22.20;51.50;;;;;;482328;247;1039;-74
2022/08/30 00:32:08;;;;;;;;;;;22.30;51.40;;;;;;482306;247;1114;-74
2022/08/30 00:34:09;;;;;;;;;;;22.30;51.20;;;;;;482366;247;1231;-74
2022/08/30 00:36:10;;;;;;;;;;;22.30;51.20;;;;;;482269;247;1187;-74
2022/08/30 00:38:12;;;;;;;;;;;22.20;51.40;;;;;;482296;247;2145;-74
2022/08/30 00:40:14;;;;;;;;;;;22.20;51.50;;;;;;482296;243;1093;-74
2022/08/30 00:42:15;;;;;;;;;;;22.20;51.60;;;;;;482287;247;1449;-74
2022/08/30 00:44:16;;;;;;;;;;;22.10;51.60;;;;;;482337;247;1215;-74
2022/08/30 00:46:17;;;;;;;;;;;22.20;51.70;;;;;;482200;247;1147;-75
2022/08/30 00:48:19;;;;;;;;;;;22.20;51.50;;;;;;482360;247;1121;-74
2022/08/30 00:50:20;;;;;;;;;;;22.20;51.50;;;;;;482147;243;1191;-74
2022/08/30 00:52:22;;;;;;;;;;;22.30;51.50;;;;;;482283;247;1125;-74
2022/08/30 00:54:24;;;;;;;;;;;22.30;51.50;;;;;;482317;247;1143;-74
2022/08/30 00:56:24;;;;;;;;;;;22.20;51.50;;;;;;482301;247;1582;-74
2022/08/30 00:58:26;;;;;;;;;;;22.20;51.50;;;;;;482148;247;2189;-74
2022/08/30 01:00:27;;;;;;;;;;;22.30;51.40;;;;;;482250;247;1225;-75
2022/08/30 01:02:30;;;;;;;;;;;22.30;51.40;;;;;;482386;247;1146;-74
2022/08/30 01:04:31;;;;;;;;;;;22.30;51.40;;;;;;482480;247;1127;-74
2022/08/30 01:06:32;;;;;;;;;;;22.30;51.30;;;;;;482439;247;1242;-75
2022/08/30 01:08:34;;;;;;;;;;;22.30;51.40;;;;;;482295;244;1113;-74
2022/08/30 01:10:35;;;;;;;;;;;22.30;51.30;;;;;;482216;247;1085;-74
2022/08/30 01:12:36;;;;;;;;;;;22.30;51.20;;;;;;482594;247;1078;-74
2022/08/30 01:14:38;;;;;;;;;;;22.30;51.30;;;;;;482310;247;1148;-74
2022/08/30 01:16:39;;;;;;;;;;;22.30;51.30;;;;;;482493;247;1143;-74
2022/08/30 01:18:40;;;;;;;;;;;22.20;51.40;;;;;;482288;247;2200;-74
2022/08/30 01:20:42;;;;;;;;;;;22.10;51.50;;;;;;482325;247;1245;-74
2022/08/30 01:22:43;;;;;;;;;;;22.10;51.60;;;;;;482428;247;1086;-74
2022/08/30 01:24:46;;;;;;;;;;;22.10;51.60;;;;;;482456;247;1178;-74
2022/08/30 01:26:46;;;;;;;;;;;22.10;51.70;;;;;;482285;247;1408;-74
2022/08/30 01:28:48;;;;;;;;;;;22.10;51.70;;;;;;482421;247;1111;-74
2022/08/30 01:30:49;;;;;;;;;;;22.10;51.60;;;;;;482440;247;1130;-74
2022/08/30 01:32:51;;;;;;;;;;;22.20;51.40;;;;;;482580;247;1129;-74
2022/08/30 01:34:52;;;;;;;;;;;22.10;51.60;;;;;;482390;247;1354;-74
2022/08/30 01:36:53;;;;;;;;;;;22.20;51.50;;;;;;482330;247;1137;-74
2022/08/30 01:38:55;;;;;;;;;;;22.20;51.40;;;;;;482295;247;2153;-74
2022/08/30 01:40:56;;;;;;;;;;;22.20;51.50;;;;;;482565;243;1141;-74
2022/08/30 01:42:57;;;;;;;;;;;22.10;51.40;;;;;;482366;247;998;-74
2022/08/30 01:44:59;;;;;;;;;;;22.10;51.50;;;;;;482313;247;1077;-75
2022/08/30 01:47:00;;;;;;;;;;;22.10;51.50;;;;;;482295;247;1112;-74
2022/08/30 01:49:02;;;;;;;;;;;22.10;51.50;;;;;;482368;247;1285;-74
2022/08/30 01:51:03;;;;;;;;;;;22.10;51.70;;;;;;482447;247;1179;-74
2022/08/30 01:53:05;;;;;;;;;;;22.10;51.60;;;;;;482456;247;1073;-74
2022/08/30 01:55:06;;;;;;;;;;;22.10;51.60;;;;;;482317;247;1104;-74
2022/08/30 01:57:08;;;;;;;;;;;22.10;51.70;;;;;;482362;244;1108;-75
2022/08/30 01:59:09;;;;;;;;;;;22.10;51.60;;;;;;482297;247;2192;-74
2022/08/30 02:01:11;;;;;;;;;;;22.00;51.70;;;;;;482303;247;1227;-75
2022/08/30 02:03:12;;;;;;;;;;;22.00;51.70;;;;;;482346;247;1336;-74
2022/08/30 02:05:13;;;;;;;;;;;22.00;51.70;;;;;;482337;247;1287;-74
2022/08/30 02:07:15;;;;;;;;;;;22.00;51.70;;;;;;482341;247;1150;-74
2022/08/30 02:09:16;;;;;;;;;;;22.00;51.70;;;;;;482292;247;1129;-74
2022/08/30 02:11:17;;;;;;;;;;;22.00;51.70;;;;;;482347;247;1202;-75
2022/08/30 02:13:19;;;;;;;;;;;22.00;51.70;;;;;;482295;247;1573;-75
2022/08/30 02:15:20;;;;;;;;;;;22.00;51.70;;;;;;482237;247;1177;-74
2022/08/30 02:17:21;;;;;;;;;;;22.00;51.60;;;;;;482309;247;1253;-75
2022/08/30 02:19:23;;;;;;;;;;;22.00;51.60;;;;;;482255;247;2156;-74
2022/08/30 02:21:24;;;;;;;;;;;22.10;51.50;;;;;;482336;247;1136;-74
2022/08/30 02:23:25;;;;;;;;;;;22.10;51.50;;;;;;482249;247;1207;-74
2022/08/30 02:25:27;;;;;;;;;;;22.00;51.30;;;;;;482248;247;1223;-74
2022/08/30 02:27:28;;;;;;;;;;;22.10;51.20;;;;;;482403;247;1195;-74
2022/08/30 02:29:29;;;;;;;;;;;22.10;51.20;;;;;;482329;247;1223;-74
2022/08/30 02:31:31;;;;;;;;;;;22.10;51.10;;;;;;482340;247;1379;-74
2022/08/30 02:33:32;;;;;;;;;;;22.10;50.70;;;;;;482306;247;1193;-74
2022/08/30 02:35:33;;;;;;;;;;;22.00;51.00;;;;;;482349;247;1169;-74
2022/08/30 02:37:34;;;;;;;;;;;21.90;51.20;;;;;;482299;247;1141;-74
2022/08/30 02:39:36;;;;;;;;;;;21.90;51.20;;;;;;482204;247;2197;-74
2022/08/30 02:41:37;;;;;;;;;;;21.90;51.20;;;;;;482331;247;1202;-74
2022/08/30 02:43:39;;;;;;;;;;;21.80;51.30;;;;;;482391;243;1193;-74
2022/08/30 02:45:40;;;;;;;;;;;21.80;51.40;;;;;;482255;247;1143;-74
2022/08/30 02:47:41;;;;;;;;;;;21.80;51.40;;;;;;482327;247;1213;-74
2022/08/30 02:49:43;;;;;;;;;;;21.80;51.40;;;;;;482336;247;1163;-74
2022/08/30 02:51:44;;;;;;;;;;;21.70;51.40;;;;;;482353;247;1224;-74
2022/08/30 02:53:45;;;;;;;;;;;21.80;51.50;;;;;;482294;247;1165;-74
2022/08/30 02:55:47;;;;;;;;;;;21.80;51.30;;;;;;482284;244;1173;-74
2022/08/30 02:57:48;;;;;;;;;;;21.70;51.30;;;;;;482332;247;1221;-74
2022/08/30 02:59:49;;;;;;;;;;;21.70;51.30;;;;;;482273;247;2144;-74
2022/08/30 03:01:51;;;;;;;;;;;21.80;51.50;;;;;;482408;247;1222;-74
2022/08/30 03:03:52;;;;;;;;;;;21.70;51.50;;;;;;482272;247;1289;-74
2022/08/30 03:05:53;;;;;;;;;;;21.80;51.30;;;;;;482384;247;1179;-74
2022/08/30 03:07:55;;;;;;;;;;;21.80;51.30;;;;;;482390;247;1132;-74
2022/08/30 03:09:56;;;;;;;;;;;21.80;51.40;;;;;;482289;247;1142;-74
2022/08/30 03:11:57;;;;;;;;;;;21.80;51.30;;;;;;482318;247;1256;-74
2022/08/30 03:13:59;;;;;;;;;;;21.70;51.40;;;;;;482320;247;1156;-74
2022/08/30 03:16:00;;;;;;;;;;;21.80;51.50;;;;;;482302;247;1366;-74
2022/08/30 03:18:01;;;;;;;;;;;21.70;51.30;;;;;;482311;247;1246;-74
2022/08/30 03:20:03;;;;;;;;;;;21.80;51.40;;;;;;482275;247;2204;-74
2022/08/30 03:22:04;;;;;;;;;;;21.70;51.30;;;;;;482335;247;1163;-74
2022/08/30 03:24:05;;;;;;;;;;;21.70;51.30;;;;;;482296;247;1136;-74
2022/08/30 03:26:07;;;;;;;;;;;21.80;51.20;;;;;;482436;247;1260;-74
2022/08/30 03:28:08;;;;;;;;;;;21.80;51.20;;;;;;482349;247;1252;-74
2022/08/30 03:30:09;;;;;;;;;;;21.70;51.20;;;;;;482531;247;1150;-74
2022/08/30 03:32:11;;;;;;;;;;;21.80;51.40;;;;;;482308;247;1223;-74
2022/08/30 03:34:12;;;;;;;;;;;21.90;50.80;;;;;;482401;247;1197;-74
2022/08/30 03:36:13;;;;;;;;;;;21.90;50.90;;;;;;482305;247;1096;-74
2022/08/30 03:38:15;;;;;;;;;;;21.80;50.90;;;;;;482307;247;1253;-74
2022/08/30 03:40:16;;;;;;;;;;;21.80;51.00;;;;;;482292;247;2142;-74
2022/08/30 03:42:18;;;;;;;;;;;21.70;51.10;;;;;;482322;247;1278;-74
2022/08/30 03:44:19;;;;;;;;;;;21.80;51.20;;;;;;482319;247;1224;-74
2022/08/30 03:46:20;;;;;;;;;;;21.70;51.20;;;;;;482274;247;1194;-74
2022/08/30 03:48:21;;;;;;;;;;;21.70;51.40;;;;;;482461;247;1279;-74
2022/08/30 03:50:23;;;;;;;;;;;21.70;51.40;;;;;;482299;247;1306;-74
2022/08/30 03:52:24;;;;;;;;;;;21.80;51.30;;;;;;482350;247;1245;-74
2022/08/30 03:54:25;;;;;;;;;;;21.70;51.20;;;;;;482260;247;1200;-74
2022/08/30 03:56:27;;;;;;;;;;;21.70;51.20;;;;;;482317;247;1256;-74
2022/08/30 03:58:28;;;;;;;;;;;21.70;51.20;;;;;;482268;247;1186;-74
2022/08/30 04:00:29;;;;;;;;;;;21.70;51.30;;;;;;482318;247;2204;-74
2022/08/30 04:02:31;;;;;;;;;;;21.70;51.30;;;;;;482283;247;1080;-74
2022/08/30 04:04:32;;;;;;;;;;;21.60;51.30;;;;;;482254;247;1050;-74
2022/08/30 04:06:34;;;;;;;;;;;21.70;51.50;;;;;;482605;247;1140;-74
2022/08/30 04:08:35;;;;;;;;;;;21.70;51.40;;;;;;482293;247;1134;-74
2022/08/30 04:10:36;;;;;;;;;;;21.70;51.20;;;;;;482305;247;1098;-74
2022/08/30 04:12:38;;;;;;;;;;;21.70;51.20;;;;;;482275;247;1196;-74
2022/08/30 04:14:39;;;;;;;;;;;21.70;51.30;;;;;;482382;247;1058;-74
2022/08/30 04:16:40;;;;;;;;;;;21.70;51.20;;;;;;482347;247;1128;-75
2022/08/30 04:18:41;;;;;;;;;;;21.70;51.30;;;;;;482291;247;1208;-75
2022/08/30 04:20:43;;;;;;;;;;;21.60;51.20;;;;;;482367;247;2150;-75
2022/08/30 04:22:44;;;;;;;;;;;21.60;51.40;;;;;;482358;247;1160;-74
2022/08/30 04:24:46;;;;;;;;;;;21.60;51.30;;;;;;482226;247;1351;-74
2022/08/30 04:26:48;;;;;;;;;;;21.60;51.40;;;;;;482384;247;1122;-74
2022/08/30 04:28:49;;;;;;;;;;;21.70;51.20;;;;;;482405;247;1208;-74
2022/08/30 04:30:50;;;;;;;;;;;21.70;51.10;;;;;;482322;247;1129;-74
2022/08/30 04:32:52;;;;;;;;;;;21.80;50.90;;;;;;482375;247;1103;-74
2022/08/30 04:34:53;;;;;;;;;;;21.70;50.90;;;;;;482296;247;1249;-74
2022/08/30 04:36:54;;;;;;;;;;;21.70;51.10;;;;;;482420;247;1206;-74
2022/08/30 04:38:56;;;;;;;;;;;21.70;51.00;;;;;;482312;247;1145;-74
2022/08/30 04:40:57;;;;;;;;;;;21.60;51.30;;;;;;482242;247;2221;-74
2022/08/30 04:42:59;;;;;;;;;;;21.60;51.30;;;;;;482449;247;1124;-74
2022/08/30 04:45:00;;;;;;;;;;;21.60;51.20;;;;;;482230;247;1265;-74
2022/08/30 04:47:01;;;;;;;;;;;21.60;51.20;;;;;;482311;247;1146;-74
2022/08/30 04:49:02;;;;;;;;;;;21.60;51.30;;;;;;482206;247;1219;-74
2022/08/30 04:51:04;;;;;;;;;;;21.60;51.30;;;;;;482031;247;1128;-74
2022/08/30 04:53:05;;;;;;;;;;;21.60;51.40;;;;;;482007;247;1380;-74
2022/08/30 04:55:07;;;;;;;;;;;21.60;51.30;;;;;;481956;247;1143;-74
2022/08/30 04:57:08;;;;;;;;;;;21.70;51.30;;;;;;482013;247;1454;-74
2022/08/30 04:59:09;;;;;;;;;;;21.70;51.20;;;;;;482184;247;1304;-74
2022/08/30 05:01:10;;;;;;;;;;;21.70;51.20;;;;;;482185;247;2200;-74
2022/08/30 05:03:12;;;;;;;;;;;21.70;51.30;;;;;;482153;247;1209;-75
2022/08/30 05:07:32;;;;;;;;;;;21.60;51.30;;;;;;482087;247;1248;-74
2022/08/30 05:09:33;;;;;;;;;;;21.60;51.30;;;;;;482328;247;1233;-74
2022/08/30 05:11:35;;;;;;;;;;;21.60;51.30;;;;;;482017;247;1168;-74
2022/08/30 05:13:36;;;;;;;;;;;21.60;51.50;;;;;;482275;247;1132;-74
2022/08/30 05:15:38;;;;;;;;;;;21.60;51.40;;;;;;482179;247;1193;-74
2022/08/30 05:17:39;;;;;;;;;;;21.60;51.40;;;;;;482281;247;1433;-74
2022/08/30 05:19:40;;;;;;;;;;;21.70;51.40;;;;;;482407;247;2160;-74
2022/08/30 05:21:41;;;;;;;;;;;21.60;51.40;;;;;;482352;244;1188;-74
2022/08/30 05:23:43;;;;;;;;;;;21.60;51.30;;;;;;482237;247;1143;-74
2022/08/30 05:25:45;;;;;;;;;;;21.60;51.40;;;;;;482357;247;1173;-74
2022/08/30 05:27:46;;;;;;;;;;;21.60;51.40;;;;;;482264;247;1079;-74
2022/08/30 05:29:47;;;;;;;;;;;21.60;51.50;;;;;;482286;247;1196;-74
2022/08/30 05:31:49;;;;;;;;;;;21.60;51.30;;;;;;482316;247;1261;-74
2022/08/30 05:33:50;;;;;;;;;;;21.80;51.10;;;;;;482237;247;1176;-74
2022/08/30 05:35:51;;;;;;;;;;;21.70;51.30;;;;;;482076;247;1141;-74
2022/08/30 05:37:53;;;;;;;;;;;21.70;51.30;;;;;;482139;247;1295;-74
2022/08/30 05:39:55;;;;;;;;;;;21.60;51.30;;;;;;482072;247;2149;-74
2022/08/30 05:41:56;;;;;;;;;;;21.60;51.50;;;;;;482203;247;1309;-74
2022/08/30 05:43:57;;;;;;;;;;;21.60;51.50;;;;;;482265;247;1187;-74
2022/08/30 05:45:59;;;;;;;;;;;21.60;51.50;;;;;;482308;247;1176;-74
2022/08/30 05:48:00;;;;;;;;;;;21.60;51.50;;;;;;482150;247;1131;-74
2022/08/30 05:50:02;;;;;;;;;;;21.70;51.40;;;;;;482317;247;1216;-74
2022/08/30 05:52:03;;;;;;;;;;;21.70;51.50;;;;;;482138;247;1279;-74
2022/08/30 05:54:05;;;;;;;;;;;21.70;51.50;;;;;;482389;247;1291;-74
2022/08/30 05:56:06;;;;;;;;;;;21.70;51.50;;;;;;482255;247;1196;-74
2022/08/30 05:58:07;;;;;;;;;;;21.60;51.50;;;;;;482174;247;1182;-74
2022/08/30 06:00:09;;;;;;;;;;;21.60;51.70;;;;;;482165;247;2149;-74
2022/08/30 06:02:10;;;;;;;;;;;21.60;51.80;;;;;;482183;247;1147;-74
2022/08/30 06:04:11;;;;;;;;;;;21.50;51.90;;;;;;482210;247;1195;-74
2022/08/30 06:06:12;;;;;;;;;;;21.50;52.00;;;;;;482225;247;1349;-74
2022/08/30 06:08:14;;;;;;;;;;;21.50;52.20;;;;;;482113;247;1159;-75
2022/08/30 06:10:15;;;;;;;;;;;21.50;52.10;;;;;;482108;247;1300;-74
2022/08/30 06:12:17;;;;;;;;;;;21.60;52.10;;;;;;482125;247;1149;-74
2022/08/30 06:14:18;;;;;;;;;;;21.50;52.10;;;;;;482204;247;1112;-74
2022/08/30 06:16:19;;;;;;;;;;;21.50;52.20;;;;;;482106;247;1138;-74
2022/08/30 06:18:20;;;;;;;;;;;21.40;52.40;;;;;;482211;247;1207;-74
2022/08/30 06:20:22;;;;;;;;;;;21.40;52.60;;;;;;482142;247;2191;-74
2022/08/30 06:22:23;;;;;;;;;;;21.50;52.60;;;;;;482146;247;1107;-74
2022/08/30 06:24:25;;;;;;;;;;;21.50;52.50;;;;;;482069;247;1090;-74
2022/08/30 06:26:26;;;;;;;;;;;21.40;52.60;;;;;;482204;247;1168;-74
2022/08/30 06:28:27;;;;;;;;;;;21.40;52.90;;;;;;482188;247;1172;-74
2022/08/30 06:30:29;;;;;;;;;;;21.40;52.80;;;;;;482165;247;1051;-74
2022/08/30 06:32:30;;;;;;;;;;;21.50;52.70;;;;;;482319;247;1129;-74
2022/08/30 06:34:31;;;;;;;;;;;21.50;52.70;;;;;;482026;247;1169;-74
2022/08/30 06:36:33;;;;;;;;;;;21.60;52.80;;;;;;482185;247;1046;-74
2022/08/30 06:38:34;;;;;;;;;;;21.60;52.70;;;;;;481987;247;1127;-74
2022/08/30 06:40:35;;;;;;;;;;;21.50;52.70;;;;;;482088;247;2205;-74
2022/08/30 06:42:36;;;;;;;;;;;21.50;53.00;;;;;;482193;247;1142;-74
2022/08/30 06:44:38;;;;;;;;;;;21.50;53.00;;;;;;481962;247;1180;-74
2022/08/30 06:46:40;;;;;;;;;;;21.50;53.00;;;;;;481979;247;1255;-74
2022/08/30 06:48:41;;;;;;;;;;;21.60;53.00;;;;;;481966;247;1189;-74
2022/08/30 06:50:43;;;;;;;;;;;21.60;53.00;;;;;;481892;247;1238;-74
2022/08/30 06:52:44;;;;;;;;;;;21.60;53.10;;;;;;481748;247;1402;-75
2022/08/30 06:54:45;;;;;;;;;;;21.50;53.40;;;;;;482047;247;1347;-74
2022/08/30 06:56:46;;;;;;;;;;;21.50;53.60;;;;;;481875;247;1355;-74
2022/08/30 06:58:48;;;;;;;;;;;21.50;53.80;;;;;;482040;247;1462;-74
2022/08/30 07:00:49;;;;;;;;;;;21.50;53.80;;;;;;481995;247;2137;-74
2022/08/30 07:02:50;;;;;;;;;;;21.50;53.90;;;;;;482014;247;1116;-74
2022/08/30 07:04:52;;;;;;;;;;;21.50;53.70;;;;;;481660;247;1133;-74
2022/08/30 07:06:53;;;;;;;;;;;21.50;53.80;;;;;;482030;244;1128;-74
2022/08/30 07:08:54;;;;;;;;;;;21.50;54.00;;;;;;481978;247;1090;-74
2022/08/30 07:10:56;;;;;;;;;;;21.60;54.00;;;;;;482091;247;1272;-74
2022/08/30 07:12:57;;;;;;;;;;;21.60;53.80;;;;;;482085;247;1377;-74
2022/08/30 07:14:58;;;;;;;;;;;21.50;53.90;;;;;;482092;247;1336;-74
2022/08/30 07:17:00;;;;;;;;;;;21.50;54.10;;;;;;482050;247;1281;-74
2022/08/30 07:19:01;;;;;;;;;;;21.50;54.00;;;;;;481848;247;1079;-74
2022/08/30 07:21:02;;;;;;;;;;;21.50;54.20;;;;;;482107;247;2197;-74
2022/08/30 07:23:04;;;;;;;;;;;21.50;54.10;;;;;;481996;247;1128;-74
2022/08/30 07:25:05;;;;;;;;;;;21.50;54.20;;;;;;482112;247;1064;-74
2022/08/30 07:27:06;;;;;;;;;;;21.50;54.20;;;;;;482063;247;1053;-74
2022/08/30 07:29:08;;;;;;;;;;;21.50;54.20;;;;;;482121;247;1107;-74
2022/08/30 07:31:09;;;;;;;;;;;21.50;54.20;;;;;;481958;247;1142;-74
2022/08/30 07:33:10;;;;;;;;;;;21.50;54.20;;;;;;482081;247;1100;-74
2022/08/30 07:35:12;;;;;;;;;;;21.60;54.20;;;;;;482121;247;1051;-74
2022/08/30 07:37:13;;;;;;;;;;;21.70;54.10;;;;;;481998;247;1113;-74
2022/08/30 07:39:14;;;;;;;;;;;21.70;53.80;;;;;;482150;247;1089;-74
2022/08/30 07:41:16;;;;;;;;;;;21.70;53.80;;;;;;482045;247;2191;-74
2022/08/30 07:43:17;;;;;;;;;;;21.70;53.80;;;;;;482018;247;1182;-74
2022/08/30 07:45:19;;;;;;;;;;;21.80;53.80;;;;;;482063;247;1150;-74
2022/08/30 07:47:20;;;;;;;;;;;21.70;53.90;;;;;;481997;247;1103;-74
2022/08/30 07:49:21;;;;;;;;;;;21.80;53.90;;;;;;482103;247;1328;-74
2022/08/30 07:51:23;;;;;;;;;;;21.90;53.80;;;;;;482037;247;1104;-74
2022/08/30 07:53:24;;;;;;;;;;;21.80;53.80;;;;;;482089;247;1535;-75
2022/08/30 07:55:25;;;;;;;;;;;21.80;54.20;;;;;;481943;247;1028;-75
2022/08/30 07:57:27;;;;;;;;;;;21.80;54.10;;;;;;481990;247;1068;-74
2022/08/30 07:59:28;;;;;;;;;;;21.70;54.20;;;;;;482139;247;1418;-74
2022/08/30 08:01:29;;;;;;;;;;;21.70;54.50;;;;;;482056;247;2165;-74
2022/08/30 08:03:31;;;;;;;;;;;21.70;54.50;;;;;;482094;247;1157;-74
2022/08/30 08:05:32;;;;;;;;;;;21.80;54.30;;;;;;482135;247;1130;-74
2022/08/30 08:07:33;;;;;;;;;;;22.00;54.00;;;;;;482120;247;1125;-74
2022/08/30 08:09:35;;;;;;;;;;;22.00;53.70;;;;;;482198;247;1241;-74
2022/08/30 08:11:36;;;;;;;;;;;22.10;53.80;;;;;;482202;247;1352;-74
2022/08/30 08:13:37;;;;;;;;;;;22.20;53.80;;;;;;482089;247;1237;-75
2022/08/30 08:15:39;;;;;;;;;;;22.10;53.70;;;;;;482205;247;1122;-74
2022/08/30 08:17:40;;;;;;;;;;;22.10;53.70;;;;;;482152;247;1141;-74
2022/08/30 08:19:41;;;;;;;;;;;22.20;53.80;;;;;;482163;247;1224;-74
2022/08/30 08:21:42;;;;;;;;;;;22.10;53.80;;;;;;482114;247;2165;-74
2022/08/30 08:23:44;;;;;;;;;;;22.00;54.00;;;;;;482097;247;1135;-74
2022/08/30 08:25:46;;;;;;;;;;;22.00;54.10;;;;;;482184;247;1329;-74
2022/08/30 08:27:49;;;;;;;;;;;22.00;54.20;;;;;;481963;247;1142;-74
2022/08/30 08:29:49;;;;;;;;;;;22.10;54.30;;;;;;481934;247;1542;-75
2022/08/30 08:31:50;;;;;;;;;;;22.10;54.10;;;;;;481953;247;1230;-74
2022/08/30 08:33:52;;;;;;;;;;;22.10;54.00;;;;;;482067;247;1133;-74
2022/08/30 08:35:53;;;;;;;;;;;22.20;54.00;;;;;;482006;247;1125;-74
2022/08/30 08:37:54;;;;;;;;;;;22.30;53.90;;;;;;482060;247;1039;-74
2022/08/30 08:39:56;;;;;;;;;;;22.30;53.90;;;;;;482028;247;1228;-74
2022/08/30 08:41:57;;;;;;;;;;;22.30;53.70;;;;;;482027;247;2157;-74
2022/08/30 08:43:58;;;;;;;;;;;22.10;54.30;;;;;;482027;247;1072;-74
2022/08/30 08:46:00;;;;;;;;;;;22.00;54.50;;;;;;482075;247;1184;-74
2022/08/30 08:48:01;;;;;;;;;;;21.90;54.90;;;;;;482008;247;1160;-74
2022/08/30 08:50:03;;;;;;;;;;;21.80;55.30;;;;;;482053;247;1059;-74
2022/08/30 08:54:24;;;;;;;;;;;21.80;55.20;;;;;;482002;247;1275;-74
2022/08/30 08:56:25;;;;;;;;;;;21.90;55.30;;;;;;482129;247;1175;-74
2022/08/30 08:58:26;;;;;;;;;;;22.00;55.10;;;;;;481967;247;1135;-74
2022/08/30 09:00:28;;;;;;;;;;;22.10;54.90;;;;;;482033;247;1104;-74
2022/08/30 09:02:29;;;;;;;;;;;22.10;54.80;;;;;;482105;247;2165;-74
2022/08/30 09:04:31;;;;;;;;;;;22.20;54.80;;;;;;482072;247;1164;-74
2022/08/30 09:06:32;;;;;;;;;;;22.30;54.50;;;;;;482162;247;1147;-74
2022/08/30 09:08:35;;;;;;;;;;;22.30;54.40;;;;;;481851;247;1184;-73
2022/08/30 09:10:35;;;;;;;;;;;22.30;54.20;;;;;;481783;247;1368;-74
2022/08/30 09:12:37;;;;;;;;;;;22.40;54.00;;;;;;482013;247;1376;-74
2022/08/30 09:14:37;;;;;;;;;;;22.50;54.10;;;;;;482011;247;1176;-74
2022/08/30 09:16:39;;;;;;;;;;;22.50;53.90;;;;;;482070;247;1117;-74
2022/08/30 09:18:40;;;;;;;;;;;22.50;54.00;;;;;;481956;247;1119;-74
2022/08/30 09:20:42;;;;;;;;;;;22.50;53.70;;;;;;481911;247;1255;-74
2022/08/30 09:22:43;;;;;;;;;;;22.50;53.60;;;;;;481947;247;2200;-74
2022/08/30 09:24:44;;;;;;;;;;;22.50;53.60;;;;;;481964;247;1162;-74
2022/08/30 09:26:45;;;;;;;;;;;22.60;53.50;;;;;;482063;247;1206;-74
2022/08/30 09:28:47;;;;;;;;;;;22.50;53.50;;;;;;482006;247;1179;-74
2022/08/30 09:30:48;;;;;;;;;;;22.50;53.60;;;;;;482060;247;1148;-74
2022/08/30 09:32:49;;;;;;;;;;;22.50;53.60;;;;;;482069;247;1166;-74
2022/08/30 09:34:51;;;;;;;;;;;22.50;53.70;;;;;;481947;247;1198;-74
2022/08/30 09:36:52;;;;;;;;;;;22.30;53.80;;;;;;481803;247;1279;-74
2022/08/30 09:38:53;;;;;;;;;;;22.20;54.20;;;;;;482023;247;1221;-74
2022/08/30 09:40:55;;;;;;;;;;;22.20;54.30;;;;;;482114;247;1166;-74
2022/08/30 09:42:56;;;;;;;;;;;22.30;54.00;;;;;;481956;247;2222;-74
2022/08/30 09:45:09;;;;;;;;;;;22.30;53.80;;;;;;481912;247;1152;-74
2022/08/30 09:46:59;;;;;;;;;;;22.30;53.80;;;;;;481369;247;1278;-74
2022/08/30 09:49:00;;;;;;;;;;;22.20;53.80;;;;;;482013;247;1420;-74
2022/08/30 09:51:02;;;;;;;;;;;22.30;53.80;;;;;;482145;247;1185;-74
2022/08/30 09:53:08;;;;;;;;;;;22.30;53.80;;;;;;482047;247;1172;-74
2022/08/30 09:55:06;;;;;;;;;;;22.20;53.80;;;;;;481933;247;1446;-74
2022/08/30 09:57:10;;;;;;;;;;;21.90;54.20;;;;;;482134;247;1157;-74
2022/08/30 09:59:10;;;;;;;;;;;21.90;54.60;;;;;;481953;247;1448;-74
2022/08/30 10:01:11;;;;;;;;;;;21.90;54.70;;;;;;482138;247;2158;-74
2022/08/30 10:03:12;;;;;;;;;;;21.90;54.70;;;;;;482093;247;1108;-74
2022/08/30 10:05:14;;;;;;;;;;;21.90;54.70;;;;;;482109;247;1237;-75
2022/08/30 10:07:16;;;;;;;;;;;22.00;54.40;;;;;;482120;243;1209;-74
2022/08/30 10:09:17;;;;;;;;;;;22.20;54.00;;;;;;481999;247;1135;-74
2022/08/30 10:11:18;;;;;;;;;;;22.30;53.90;;;;;;482099;247;1159;-74
2022/08/30 10:13:20;;;;;;;;;;;22.30;53.70;;;;;;482173;247;1211;-74
2022/08/30 10:15:21;;;;;;;;;;;22.30;53.80;;;;;;482065;247;1216;-74
2022/08/30 10:17:22;;;;;;;;;;;22.30;53.90;;;;;;481992;247;1306;-74
2022/08/30 10:19:24;;;;;;;;;;;22.30;53.90;;;;;;482042;247;1255;-74
2022/08/30 10:21:25;;;;;;;;;;;22.30;53.80;;;;;;481973;247;2188;-74
2022/08/30 10:23:26;;;;;;;;;;;22.40;53.90;;;;;;482062;247;1229;-74
2022/08/30 10:25:28;;;;;;;;;;;22.40;53.70;;;;;;482021;247;1171;-74
2022/08/30 10:27:29;;;;;;;;;;;22.40;53.60;;;;;;482105;247;1133;-74
2022/08/30 10:29:30;;;;;;;;;;;22.40;53.50;;;;;;482095;244;1108;-75
2022/08/30 10:31:32;;;;;;;;;;;22.30;53.70;;;;;;482126;247;1192;-74
2022/08/30 10:33:33;;;;;;;;;;;22.10;54.00;;;;;;482119;247;1171;-74
2022/08/30 10:35:34;;;;;;;;;;;22.10;54.40;;;;;;482092;247;1163;-74
2022/08/30 10:37:36;;;;;;;;;;;22.20;54.20;;;;;;482190;247;1258;-74
2022/08/30 10:39:37;;;;;;;;;;;22.30;54.00;;;;;;481996;247;1128;-74
2022/08/30 10:41:38;;;;;;;;;;;22.40;53.70;;;;;;482069;247;2209;-74
2022/08/30 10:43:40;;;;;;;;;;;22.40;53.50;;;;;;481893;247;1128;-74
2022/08/30 10:45:41;;;;;;;;;;;22.50;53.40;;;;;;482105;247;1206;-75
2022/08/30 10:47:42;;;;;;;;;;;22.50;53.30;;;;;;482211;247;1210;-75
2022/08/30 10:49:44;;;;;;;;;;;22.30;53.50;;;;;;482145;247;1408;-74
2022/08/30 10:51:45;;;;;;;;;;;22.30;53.80;;;;;;482058;247;1173;-74
2022/08/30 10:53:46;;;;;;;;;;;22.20;54.10;;;;;;482074;247;1143;-74
2022/08/30 10:55:48;;;;;;;;;;;22.00;54.50;;;;;;482008;247;1089;-74
2022/08/30 10:57:49;;;;;;;;;;;21.90;54.50;;;;;;482139;247;1103;-74
2022/08/30 10:59:51;;;;;;;;;;;21.90;54.60;;;;;;481983;247;1248;-74
2022/08/30 11:01:52;;;;;;;;;;;22.10;54.30;;;;;;482099;247;2196;-74
2022/08/30 11:03:53;;;;;;;;;;;22.20;54.00;;;;;;482176;247;1094;-74
2022/08/30 11:05:54;;;;;;;;;;;22.30;53.70;;;;;;482101;247;1066;-74
2022/08/30 11:07:56;;;;;;;;;;;22.30;53.60;;;;;;482099;247;1066;-74
2022/08/30 11:09:58;;;;;;;;;;;22.40;53.40;;;;;;482019;247;1271;-74
2022/08/30 11:11:59;;;;;;;;;;;22.40;53.20;;;;;;482065;244;1209;-74
2022/08/30 11:14:00;;;;;;;;;;;22.40;53.30;;;;;;481969;247;1131;-74
2022/08/30 11:16:01;;;;;;;;;;;22.50;53.30;;;;;;482032;247;1122;-74
2022/08/30 11:18:02;;;;;;;;;;;22.50;53.20;;;;;;482020;247;1057;-74
2022/08/30 11:20:04;;;;;;;;;;;22.50;53.10;;;;;;482086;247;1100;-74
2022/08/30 11:22:05;;;;;;;;;;;22.40;53.30;;;;;;481977;247;2193;-74
2022/08/30 11:24:07;;;;;;;;;;;22.50;53.20;;;;;;482143;247;1175;-74
2022/08/30 11:26:08;;;;;;;;;;;22.50;53.20;;;;;;482140;247;1172;-74
2022/08/30 11:28:10;;;;;;;;;;;22.50;53.10;;;;;;482020;247;1168;-74
2022/08/30 11:30:11;;;;;;;;;;;22.40;53.10;;;;;;482011;247;1090;-74
2022/08/30 11:32:12;;;;;;;;;;;22.40;53.20;;;;;;482143;247;1446;-74
2022/08/30 11:34:14;;;;;;;;;;;22.40;53.20;;;;;;482119;247;1111;-74
2022/08/30 11:36:15;;;;;;;;;;;22.50;53.20;;;;;;482098;247;1136;-74
2022/08/30 11:38:16;;;;;;;;;;;22.50;53.10;;;;;;482087;247;1241;-74
2022/08/30 11:40:18;;;;;;;;;;;22.60;53.00;;;;;;482068;247;1035;-74
2022/08/30 11:42:19;;;;;;;;;;;22.50;53.10;;;;;;482047;247;2145;-74
2022/08/30 11:44:20;;;;;;;;;;;22.40;53.20;;;;;;482126;247;1046;-74
2022/08/30 11:46:23;;;;;;;;;;;22.40;53.20;;;;;;482085;247;1091;-74
2022/08/30 11:48:23;;;;;;;;;;;22.50;53.00;;;;;;482005;247;1385;-74
2022/08/30 11:50:24;;;;;;;;;;;22.40;53.10;;;;;;482075;247;1217;-74
2022/08/30 11:52:26;;;;;;;;;;;22.40;53.10;;;;;;481959;247;1161;-74
2022/08/30 11:54:27;;;;;;;;;;;22.50;53.10;;;;;;482052;247;1111;-74
2022/08/30 11:56:28;;;;;;;;;;;22.50;53.00;;;;;;482100;247;1108;-74
2022/08/30 11:58:30;;;;;;;;;;;22.50;52.80;;;;;;482189;247;1110;-74
2022/08/30 12:00:31;;;;;;;;;;;22.60;52.60;;;;;;481987;247;1336;-74
2022/08/30 12:02:32;;;;;;;;;;;22.60;52.60;;;;;;482024;247;2189;-74